Weather at Brussels/Van Keulen Field [CLOSED]

Public forecast

Using degrees Celsius for public forecast. Weather courtesy of forecast.io.

Closest aviation weather report (METAR) to Brussels/Van Keulen Field

Closest report is Waterloo Airport, 40.5 nm (74.9 km) ESE. Retrieved 2021/06/24 17:00 UTC (43 minutes ago):

CYKF 241700Z AUTO 17016G25KT 9SM CLR 26/09 A3013 RMK SLP201 DENSITY ALT 2400FT

Closest aviation forecast (TAF) to Brussels/Van Keulen Field

Closest forecast is Waterloo Airport, 40.5 nm (74.9 km) ESE. Retrieved 2021/06/24 14:39 UTC (3 hours ago):

TAF CYKF 241338Z 2414/2502 21012KT P6SM SCT100 BECMG 2414/2416 19015G25KT FM242200 19015G25KT P6SM BKN100 TEMPO 2422/2502 P6SM -SHRA BECMG 2500/2502 20012KT RMK FCST BASED ON AUTO OBS NXT FCST BY 242000Z